Sunday Morning — WDH5065 — position and weather

sailwx.info

Track history (hours):
 
Tides and Currents Weather Stations Pressure Air Temp Water Temp Dewpoint Dewpoint Depression Visibility Wind Speed Wind Dir Waves Ship Positions

Sunday Morning

Owner: Anderson, Van, Ft Lauderdale, FL. More information available from US FCC via Universal Licensing System and Coast Guard Vessel Documentation Center.

Last reported at 2017-Nov-29 12:42 UTC. Time now 2017-Dec-17 15:36 UTC.
Position N 40°43' W 074°03'.
Warning: this ship's position is 18 days out of date.

; draft 2 m.

Type: Pleasure craft. MMSI: 367624190.

Date/timePositionNaut miles runAvg speedWind from/ knotsBaromVisibWave heightAir tempDewpointWater temp
2017-Nov-29 12:42N 40°43' W 074°03'0 0.5
2017-Nov-29 12:30N 40°43' W 074°03'3 5.1
2017-Nov-29 12:00N 40°45' W 074°01'  
2017-Nov-25 18:06N 40°45' W 074°01'0 0.0
2017-Nov-25 18:00N 40°45' W 074°01'2 4.6
2017-Nov-25 17:30N 40°43' W 074°02'1 0.0
2017-Nov-24 19:42N 40°43' W 074°03'0 0.0
2017-Nov-24 19:31N 40°43' W 074°03'1 2.4
2017-Nov-24 19:00N 40°43' W 074°01'2 4.5
2017-Nov-24 18:30N 40°43' W 073°58'3 6.3
2017-Nov-24 18:00N 40°46' W 073°57'4 8.9
2017-Nov-24 17:30N 40°42' W 073°59'2 4.2
2017-Nov-24 17:00N 40°42' W 074°02'1 1.5
2017-Nov-24 16:31N 40°43' W 074°03'0 0.0
2017-Nov-24 16:00N 40°43' W 074°03'  
Track history (hours):
 
Tides and Currents Weather Stations Pressure Air Temp Water Temp Dewpoint Dewpoint Depression Visibility Wind Speed Wind Dir Waves Ship Positions

Sunday Morning

Owner: Anderson, Van, Ft Lauderdale, FL. More information available from US FCC via Universal Licensing System and Coast Guard Vessel Documentation Center.

Last reported at 2017-Nov-29 12:42 UTC. Time now 2017-Dec-17 15:36 UTC.
Position N 40°43' W 074°03'.
Warning: this ship's position is 18 days out of date.

; draft 2 m.

Type: Pleasure craft. MMSI: 367624190.

Date/timePositionNaut miles runAvg speedWind from/ knotsBaromVisibWave heightAir tempDewpointWater temp
2017-Nov-29 12:42N 40°43' W 074°03'0 0.5
2017-Nov-29 12:30N 40°43' W 074°03'3 5.1
2017-Nov-29 12:00N 40°45' W 074°01'  
2017-Nov-25 18:06N 40°45' W 074°01'0 0.0
2017-Nov-25 18:00N 40°45' W 074°01'2 4.6
2017-Nov-25 17:30N 40°43' W 074°02'1 0.0
2017-Nov-24 19:42N 40°43' W 074°03'0 0.0
2017-Nov-24 19:31N 40°43' W 074°03'1 2.4
2017-Nov-24 19:00N 40°43' W 074°01'2 4.5
2017-Nov-24 18:30N 40°43' W 073°58'3 6.3
2017-Nov-24 18:00N 40°46' W 073°57'4 8.9
2017-Nov-24 17:30N 40°42' W 073°59'2 4.2
2017-Nov-24 17:00N 40°42' W 074°02'1 1.5
2017-Nov-24 16:31N 40°43' W 074°03'0 0.0
2017-Nov-24 16:00N 40°43' W 074°03'  

Dump ship's entire track history